Time;durP1;ratioP1;P1;durP2;ratioP2;P2;SDS_P1;SDS_P2;PMS_P1;PMS_P2;Temp;Humidity;BMP_temperature;BMP_pressure;BME280_temperature;BME280_humidity;BME280_pressure;Samples;Min_cycle;Max_cycle;Signal;HPM_P1;HPM_P2
2022/08/29 00:01:56;;;;;;;;;;;;;;;24.11;nan;99620.66;5062011;28;19916;-86
2022/08/29 00:04:22;;;;;;;;;;;;;;;24.07;nan;99621.13;5053227;28;19917;-88
2022/08/29 00:06:47;;;;;;;;;;;;;;;24.01;nan;99616.66;5059642;28;19916;-88
2022/08/29 00:09:13;;;;;;;;;;;;;;;23.97;nan;99615.47;5070241;28;19931;-89
2022/08/29 00:11:38;;;;;;;;;;;;;;;23.93;nan;99613.44;5072804;28;19955;-87
2022/08/29 00:14:04;;;;;;;;;;;;;;;23.93;nan;99608.88;5060285;28;19925;-88
2022/08/29 00:16:30;;;;;;;;;;;;;;;23.89;nan;99617.66;5055497;28;19920;-87
2022/08/29 00:18:56;;;;;;;;;;;;;;;23.90;nan;99620.13;5048365;28;19917;-88
2022/08/29 00:21:22;;;;;;;;;;;;;;;23.89;nan;99618.47;5052140;28;19970;-88
2022/08/29 00:23:48;;;;;;;;;;;;;;;23.87;nan;99620.56;5041226;28;19920;-86
2022/08/29 00:26:13;;;;;;;;;;;;;;;23.84;nan;99626.44;5058353;28;19974;-85
2022/08/29 00:28:39;;;;;;;;;;;;;;;23.86;nan;99621.63;5047934;28;19917;-91
2022/08/29 00:31:04;;;;;;;;;;;;;;;23.85;nan;99622.69;5040321;28;19917;-89
2022/08/29 00:33:29;;;;;;;;;;;;;;;23.90;nan;99630.91;5052408;28;19917;-89
2022/08/29 00:35:55;;;;;;;;;;;;;;;23.89;nan;99629.25;5074471;28;19916;-89
2022/08/29 00:38:21;;;;;;;;;;;;;;;23.89;nan;99634.66;5054293;28;19916;-85
2022/08/29 00:40:48;;;;;;;;;;;;;;;23.84;nan;99631.81;5071285;28;19980;-84
2022/08/29 00:43:15;;;;;;;;;;;;;;;23.87;nan;99639.44;5071717;28;19924;-84
2022/08/29 00:46:04;;;;;;;;;;;;;;;23.81;nan;99632.25;5071312;28;20019;-84
2022/08/29 00:48:29;;;;;;;;;;;;;;;23.73;nan;99637.16;4993056;28;19923;-84
2022/08/29 00:50:58;;;;;;;;;;;;;;;23.63;nan;99640.34;5074867;28;19932;-85
2022/08/29 00:53:28;;;;;;;;;;;;;;;23.48;nan;99639.91;5078697;28;20010;-85
2022/08/29 00:55:54;;;;;;;;;;;;;;;23.48;nan;99637.22;5082819;28;19955;-85
2022/08/29 00:58:25;;;;;;;;;;;;;;;23.44;nan;99636.00;5083859;28;19916;-85
2022/08/29 01:00:51;;;;;;;;;;;;;;;23.36;nan;99637.09;5083767;28;19917;-85
2022/08/29 01:03:16;;;;;;;;;;;;;;;23.31;nan;99642.34;5087995;28;19917;-88
2022/08/29 01:05:42;;;;;;;;;;;;;;;23.34;nan;99654.53;5073512;28;19952;-89
2022/08/29 01:08:07;;;;;;;;;;;;;;;23.30;nan;99656.03;5074073;28;19944;-89
2022/08/29 01:13:18;;;;;;;;;;;;;;;23.24;nan;99663.94;5082295;28;19920;-87
2022/08/29 01:15:45;;;;;;;;;;;;;;;23.24;nan;99666.63;5078362;28;19920;-87
2022/08/29 01:18:12;;;;;;;;;;;;;;;23.24;nan;99663.94;5079943;28;19934;-87
2022/08/29 01:20:41;;;;;;;;;;;;;;;23.19;nan;99661.09;5079580;28;19916;-86
2022/08/29 01:23:12;;;;;;;;;;;;;;;23.14;nan;99650.19;5077118;28;19939;-85
2022/08/29 01:25:39;;;;;;;;;;;;;;;23.08;nan;99651.06;5073481;28;19926;-84
2022/08/29 01:28:16;;;;;;;;;;;;;;;23.07;nan;99656.66;5072007;28;19923;-83
2022/08/29 01:31:03;;;;;;;;;;;;;;;22.89;nan;99662.81;5056448;28;20308;-85
2022/08/29 01:33:46;;;;;;;;;;;;;;;22.92;nan;99665.06;5072741;28;19916;-84
2022/08/29 01:36:16;;;;;;;;;;;;;;;22.83;nan;99667.22;5077870;28;20239;-86
2022/08/29 01:38:42;;;;;;;;;;;;;;;22.83;nan;99655.63;5075461;28;20281;-82
2022/08/29 01:41:08;;;;;;;;;;;;;;;22.72;nan;99656.34;5069109;28;19942;-85
2022/08/29 01:43:38;;;;;;;;;;;;;;;22.68;nan;99663.19;5067588;28;19987;-84
2022/08/29 01:46:04;;;;;;;;;;;;;;;22.58;nan;99657.44;5062993;28;19924;-83
2022/08/29 01:48:29;;;;;;;;;;;;;;;22.56;nan;99654.16;5059587;28;19923;-83
2022/08/29 01:50:55;;;;;;;;;;;;;;;22.59;nan;99662.59;5065679;28;19924;-84
2022/08/29 01:53:21;;;;;;;;;;;;;;;22.55;nan;99663.25;5068694;28;20389;-84
2022/08/29 01:55:46;;;;;;;;;;;;;;;22.58;nan;99673.56;5061713;28;19944;-82
2022/08/29 01:58:12;;;;;;;;;;;;;;;22.56;nan;99670.28;5062146;28;19917;-85
2022/08/29 02:00:38;;;;;;;;;;;;;;;22.58;nan;99678.94;5074772;28;19916;-86
2022/08/29 02:03:04;;;;;;;;;;;;;;;22.61;nan;99678.53;5052151;28;19920;-86
2022/08/29 02:05:29;;;;;;;;;;;;;;;22.65;nan;99683.25;5067203;28;19917;-85
2022/08/29 02:07:55;;;;;;;;;;;;;;;22.66;nan;99679.53;5066316;28;19991;-84
2022/08/29 02:10:22;;;;;;;;;;;;;;;22.64;nan;99678.91;5052314;28;19916;-85
2022/08/29 02:12:47;;;;;;;;;;;;;;;22.64;nan;99680.78;5070889;28;19924;-83
2022/08/29 02:15:14;;;;;;;;;;;;;;;22.62;nan;99678.28;5064399;28;20015;-84
2022/08/29 02:17:40;;;;;;;;;;;;;;;22.56;nan;99675.66;5052646;28;19923;-85
2022/08/29 02:20:07;;;;;;;;;;;;;;;22.55;nan;99676.72;5070573;28;19916;-85
2022/08/29 02:22:37;;;;;;;;;;;;;;;22.50;nan;99671.16;5078588;28;19916;-85
2022/08/29 02:25:40;;;;;;;;;;;;;;;22.49;nan;99669.50;5066505;28;20276;-89
2022/08/29 02:27:51;;;;;;;;;;;;;;;22.50;nan;99671.16;5079332;28;19916;-89
2022/08/29 02:30:17;;;;;;;;;;;;;;;22.52;nan;99669.06;5072601;28;19922;-86
2022/08/29 02:32:43;;;;;;;;;;;;;;;22.50;nan;99673.84;5072448;28;20398;-87
2022/08/29 02:35:08;;;;;;;;;;;;;;;22.49;nan;99667.66;5068480;28;19923;-88
2022/08/29 02:37:33;;;;;;;;;;;;;;;22.50;nan;99666.59;5058610;28;19920;-87
2022/08/29 02:39:59;;;;;;;;;;;;;;;22.53;nan;99665.34;5067785;28;19916;-88
2022/08/29 02:42:24;;;;;;;;;;;;;;;22.55;nan;99669.47;5044011;28;19928;-88
2022/08/29 02:44:50;;;;;;;;;;;;;;;22.59;nan;99667.97;5058701;28;20381;-84
2022/08/29 02:47:15;;;;;;;;;;;;;;;22.62;nan;99669.44;5064359;28;19924;-85
2022/08/29 02:49:41;;;;;;;;;;;;;;;22.60;nan;99660.75;5053190;28;19927;-86
2022/08/29 02:52:07;;;;;;;;;;;;;;;22.51;nan;99662.03;5052583;28;19917;-86
2022/08/29 02:54:33;;;;;;;;;;;;;;;22.51;nan;99660.16;5061109;28;19917;-85
2022/08/29 02:56:59;;;;;;;;;;;;;;;22.50;nan;99676.53;5065233;28;19916;-84
2022/08/29 02:59:24;;;;;;;;;;;;;;;22.45;nan;99679.84;5049283;28;19917;-85
2022/08/29 03:01:49;;;;;;;;;;;;;;;22.42;nan;99680.31;5064641;28;20011;-84
2022/08/29 03:04:15;;;;;;;;;;;;;;;22.38;nan;99674.50;5054197;28;19928;-86
2022/08/29 03:06:40;;;;;;;;;;;;;;;22.37;nan;99678.25;5062706;28;20463;-86
2022/08/29 03:09:06;;;;;;;;;;;;;;;22.35;nan;99666.88;5037175;28;19917;-85
2022/08/29 03:11:31;;;;;;;;;;;;;;;22.33;nan;99677.03;5063462;28;19924;-87
2022/08/29 03:13:57;;;;;;;;;;;;;;;22.29;nan;99686.56;5053256;28;20409;-86
2022/08/29 03:16:22;;;;;;;;;;;;;;;22.29;nan;99689.25;5043483;28;19956;-85
2022/08/29 03:18:47;;;;;;;;;;;;;;;22.25;nan;99695.28;5060264;28;19924;-85
2022/08/29 03:21:19;;;;;;;;;;;;;;;22.14;nan;99695.97;5058918;28;19924;-84
2022/08/29 03:23:44;;;;;;;;;;;;;;;22.20;nan;99701.31;5060190;28;20141;-84
2022/08/29 03:26:09;;;;;;;;;;;;;;;22.27;nan;99699.41;5064418;28;20034;-84
2022/08/29 03:28:35;;;;;;;;;;;;;;;22.30;nan;99701.66;5059101;28;20000;-83
2022/08/29 03:31:00;;;;;;;;;;;;;;;22.33;nan;99706.59;5042441;28;19960;-84
2022/08/29 03:33:26;;;;;;;;;;;;;;;22.32;nan;99704.97;5057087;28;19917;-84
2022/08/29 03:35:51;;;;;;;;;;;;;;;22.16;nan;99705.44;5062259;28;19921;-83
2022/08/29 03:38:17;;;;;;;;;;;;;;;21.89;nan;99706.56;5056809;28;19916;-82
2022/08/29 03:40:43;;;;;;;;;;;;;;;21.74;nan;99705.97;5059226;28;19941;-83
2022/08/29 03:43:09;;;;;;;;;;;;;;;21.64;nan;99715.31;5062693;28;19920;-82
2022/08/29 03:45:34;;;;;;;;;;;;;;;21.69;nan;99700.41;5060943;28;20011;-84
2022/08/29 03:48:00;;;;;;;;;;;;;;;21.82;nan;99698.53;5052381;28;19988;-84
2022/08/29 03:50:26;;;;;;;;;;;;;;;21.89;nan;99695.81;5050054;28;19927;-85
2022/08/29 03:52:51;;;;;;;;;;;;;;;21.88;nan;99705.75;5060960;28;19962;-85
2022/08/29 03:55:19;;;;;;;;;;;;;;;21.92;nan;99703.44;5052343;28;19947;-84
2022/08/29 03:57:44;;;;;;;;;;;;;;;21.86;nan;99717.72;5048639;28;19999;-83
2022/08/29 04:00:14;;;;;;;;;;;;;;;21.54;nan;99704.19;5050302;28;19916;-83
2022/08/29 04:02:40;;;;;;;;;;;;;;;21.56;nan;99706.66;5064995;28;19923;-84
2022/08/29 04:05:06;;;;;;;;;;;;;;;21.32;nan;99710.84;5054364;28;19916;-84
2022/08/29 04:07:36;;;;;;;;;;;;;;;21.20;nan;99707.97;5070540;28;19942;-83
2022/08/29 04:10:05;;;;;;;;;;;;;;;21.31;nan;99719.94;5060041;28;19947;-84
2022/08/29 04:12:30;;;;;;;;;;;;;;;21.34;nan;99718.66;5053905;28;19925;-85
2022/08/29 04:14:56;;;;;;;;;;;;;;;21.32;nan;99726.13;5054259;28;19966;-84
2022/08/29 04:17:21;;;;;;;;;;;;;;;21.06;nan;99710.81;5057225;28;19917;-83
2022/08/29 04:19:47;;;;;;;;;;;;;;;20.97;nan;99712.06;5067392;28;20604;-84
2022/08/29 04:22:12;;;;;;;;;;;;;;;20.97;nan;99706.69;5054716;28;20403;-83
2022/08/29 04:24:38;;;;;;;;;;;;;;;21.11;nan;99708.34;5057474;28;19916;-83
2022/08/29 04:27:03;;;;;;;;;;;;;;;21.29;nan;99711.25;5061967;28;19916;-84
2022/08/29 04:29:28;;;;;;;;;;;;;;;21.40;nan;99710.59;5065739;28;19922;-84
2022/08/29 04:31:54;;;;;;;;;;;;;;;21.48;nan;99709.56;5049257;28;20027;-81
2022/08/29 04:34:20;;;;;;;;;;;;;;;21.52;nan;99717.00;5060477;28;19942;-84
2022/08/29 04:36:46;;;;;;;;;;;;;;;21.51;nan;99715.34;5050869;28;19921;-82
2022/08/29 04:39:11;;;;;;;;;;;;;;;21.52;nan;99714.31;5058213;28;19920;-84
2022/08/29 04:41:37;;;;;;;;;;;;;;;21.51;nan;99720.72;5053262;28;19967;-84
2022/08/29 04:44:03;;;;;;;;;;;;;;;21.47;nan;99729.41;5057129;28;19917;-83
2022/08/29 04:46:28;;;;;;;;;;;;;;;21.00;nan;99722.38;5031574;28;19917;-83
2022/08/29 04:48:54;;;;;;;;;;;;;;;20.70;nan;99725.44;5065235;28;19927;-87
2022/08/29 04:51:20;;;;;;;;;;;;;;;20.62;nan;99730.97;5064776;28;19916;-86
2022/08/29 04:53:47;;;;;;;;;;;;;;;20.57;nan;99736.13;5063222;28;19917;-85
2022/08/29 04:56:12;;;;;;;;;;;;;;;20.45;nan;99729.69;5067867;28;19928;-86
2022/08/29 04:58:41;;;;;;;;;;;;;;;20.63;nan;99723.75;5058312;28;19917;-85
2022/08/29 05:01:10;;;;;;;;;;;;;;;20.71;nan;99723.59;5052582;28;20286;-82
2022/08/29 05:03:35;;;;;;;;;;;;;;;20.77;nan;99737.00;5029095;28;19917;-81
2022/08/29 05:06:07;;;;;;;;;;;;;;;20.89;nan;99739.06;5051772;28;19920;-81
2022/08/29 05:08:34;;;;;;;;;;;;;;;20.71;nan;99745.03;5048008;28;19920;-79
2022/08/29 05:11:00;;;;;;;;;;;;;;;20.50;nan;99742.53;5060223;28;19916;-81
2022/08/29 05:13:26;;;;;;;;;;;;;;;20.60;nan;99743.78;5049282;28;19917;-80
2022/08/29 05:15:52;;;;;;;;;;;;;;;20.65;nan;99746.69;5047116;28;19960;-80
2022/08/29 05:18:17;;;;;;;;;;;;;;;20.73;nan;99754.53;5058022;28;20325;-78
2022/08/29 05:20:44;;;;;;;;;;;;;;;20.80;nan;99744.63;5049916;28;19917;-84
2022/08/29 05:23:10;;;;;;;;;;;;;;;20.85;nan;99747.53;5052017;28;19924;-81
2022/08/29 05:25:35;;;;;;;;;;;;;;;20.93;nan;99759.09;5060278;28;19916;-79
2022/08/29 05:28:01;;;;;;;;;;;;;;;21.03;nan;99756.84;5051015;28;19924;-81
2022/08/29 05:30:27;;;;;;;;;;;;;;;21.10;nan;99760.34;5062926;28;19999;-81
2022/08/29 05:32:53;;;;;;;;;;;;;;;21.17;nan;99761.22;5051236;28;19917;-79
2022/08/29 05:35:19;;;;;;;;;;;;;;;21.29;nan;99764.09;5064671;28;19927;-87
2022/08/29 05:37:44;;;;;;;;;;;;;;;21.36;nan;99776.50;5044197;28;20004;-80
2022/08/29 05:40:10;;;;;;;;;;;;;;;21.35;nan;99780.22;5060281;28;19916;-83
2022/08/29 05:42:35;;;;;;;;;;;;;;;21.38;nan;99790.53;5054851;28;20015;-82
2022/08/29 05:45:02;;;;;;;;;;;;;;;21.46;nan;99794.84;5058861;28;19925;-80
2022/08/29 05:47:30;;;;;;;;;;;;;;;21.36;nan;99803.34;5047991;28;20418;-81
2022/08/29 05:49:55;;;;;;;;;;;;;;;21.29;nan;99799.81;5051890;28;20012;-80
2022/08/29 05:52:20;;;;;;;;;;;;;;;21.27;nan;99804.56;5052122;28;20054;-80
2022/08/29 05:54:46;;;;;;;;;;;;;;;21.29;nan;99807.03;5051457;28;19928;-81
2022/08/29 05:57:12;;;;;;;;;;;;;;;21.35;nan;99812.41;5037109;28;19921;-82
2022/08/29 05:59:38;;;;;;;;;;;;;;;21.37;nan;99805.00;5052712;28;19987;-81
2022/08/29 06:02:04;;;;;;;;;;;;;;;21.44;nan;99805.78;5046806;28;19951;-81
2022/08/29 06:04:30;;;;;;;;;;;;;;;21.51;nan;99803.94;5050527;28;20441;-81
2022/08/29 06:06:55;;;;;;;;;;;;;;;21.58;nan;99812.81;5045377;28;19948;-81
2022/08/29 06:09:20;;;;;;;;;;;;;;;21.63;nan;99815.72;5045917;28;19921;-80
2022/08/29 06:11:47;;;;;;;;;;;;;;;21.71;nan;99805.78;5050293;28;19939;-80
2022/08/29 06:14:13;;;;;;;;;;;;;;;21.81;nan;99816.94;5046719;28;19991;-80
2022/08/29 06:16:39;;;;;;;;;;;;;;;21.86;nan;99830.56;5056416;28;19921;-80
2022/08/29 06:19:04;;;;;;;;;;;;;;;21.92;nan;99824.34;5058924;28;19977;-80
2022/08/29 06:21:30;;;;;;;;;;;;;;;21.98;nan;99823.53;5053323;28;19963;-81
2022/08/29 06:23:56;;;;;;;;;;;;;;;22.02;nan;99830.16;5055304;28;20018;-79
2022/08/29 06:26:21;;;;;;;;;;;;;;;22.06;nan;99826.03;5053748;28;19986;-81
2022/08/29 06:28:47;;;;;;;;;;;;;;;22.09;nan;99830.97;5044119;28;19928;-80
2022/08/29 06:31:12;;;;;;;;;;;;;;;22.17;nan;99825.38;5042880;28;19924;-79
2022/08/29 06:33:37;;;;;;;;;;;;;;;22.24;nan;99823.50;5041971;28;20007;-79
2022/08/29 06:36:05;;;;;;;;;;;;;;;22.29;nan;99826.38;5051701;28;20017;-81
2022/08/29 06:38:30;;;;;;;;;;;;;;;22.36;nan;99821.78;5076649;28;19923;-80
2022/08/29 06:40:55;;;;;;;;;;;;;;;22.37;nan;99822.63;5079677;28;19916;-82
2022/08/29 06:43:21;;;;;;;;;;;;;;;22.37;nan;99836.06;5060505;28;20237;-81
2022/08/29 06:45:47;;;;;;;;;;;;;;;22.34;nan;99837.31;5076092;28;19920;-82
2022/08/29 06:48:13;;;;;;;;;;;;;;;22.41;nan;99834.59;5069960;28;20284;-80
2022/08/29 06:50:38;;;;;;;;;;;;;;;22.43;nan;99835.22;5068611;28;19920;-77
2022/08/29 06:53:04;;;;;;;;;;;;;;;22.39;nan;99832.09;5052759;28;19934;-78
2022/08/29 06:55:31;;;;;;;;;;;;;;;22.39;nan;99832.09;5070571;28;19920;-77
2022/08/29 06:57:56;;;;;;;;;;;;;;;22.38;nan;99830.44;5069710;28;19923;-77
2022/08/29 07:00:22;;;;;;;;;;;;;;;22.35;nan;99830.91;5056895;28;19920;-77
2022/08/29 07:02:48;;;;;;;;;;;;;;;22.39;nan;99833.97;5063479;28;19920;-76
2022/08/29 07:05:14;;;;;;;;;;;;;;;22.50;nan;99837.88;5062618;28;20413;-77
2022/08/29 07:07:40;;;;;;;;;;;;;;;22.58;nan;99841.16;5066465;28;19968;-75
2022/08/29 07:10:06;;;;;;;;;;;;;;;22.67;nan;99844.44;5065285;28;20329;-77
2022/08/29 07:12:31;;;;;;;;;;;;;;;22.74;nan;99840.69;5059513;28;19970;-77
2022/08/29 07:14:57;;;;;;;;;;;;;;;22.80;nan;99830.94;5062709;28;19916;-81
2022/08/29 07:17:22;;;;;;;;;;;;;;;22.85;nan;99839.19;5060870;28;19921;-78
2022/08/29 07:19:47;;;;;;;;;;;;;;;22.91;nan;99835.66;5060612;28;19939;-84
2022/08/29 07:22:13;;;;;;;;;;;;;;;22.95;nan;99831.47;5041624;28;19920;-78
2022/08/29 07:24:38;;;;;;;;;;;;;;;23.04;nan;99832.84;5043980;28;19916;-78
2022/08/29 07:27:04;;;;;;;;;;;;;;;23.10;nan;99834.69;5062096;28;19986;-78
2022/08/29 07:29:29;;;;;;;;;;;;;;;23.19;nan;99841.47;5041006;28;19916;-78
2022/08/29 07:31:55;;;;;;;;;;;;;;;23.27;nan;99846.56;5058098;28;19917;-78
2022/08/29 07:34:20;;;;;;;;;;;;;;;23.32;nan;99845.13;5058067;28;19952;-78
2022/08/29 07:36:46;;;;;;;;;;;;;;;23.39;nan;99848.56;5067997;28;19917;-78
2022/08/29 07:39:13;;;;;;;;;;;;;;;23.46;nan;99850.19;5067619;28;20284;-78
2022/08/29 07:41:40;;;;;;;;;;;;;;;23.51;nan;99852.22;5065098;28;19916;-78
2022/08/29 07:44:05;;;;;;;;;;;;;;;23.57;nan;99854.88;5065368;28;19917;-78
2022/08/29 07:46:31;;;;;;;;;;;;;;;23.62;nan;99859.63;5063955;28;20031;-78
2022/08/29 07:48:57;;;;;;;;;;;;;;;23.70;nan;99856.63;5068683;28;19916;-78
2022/08/29 07:51:23;;;;;;;;;;;;;;;23.79;nan;99860.72;5069033;28;19982;-80
2022/08/29 07:53:49;;;;;;;;;;;;;;;23.84;nan;99852.78;5052494;28;20316;-79
2022/08/29 07:56:17;;;;;;;;;;;;;;;23.90;nan;99861.88;5053793;28;19916;-79
2022/08/29 07:58:42;;;;;;;;;;;;;;;23.93;nan;99862.22;5067341;28;20669;-79
2022/08/29 08:01:08;;;;;;;;;;;;;;;23.85;nan;99854.44;5052505;28;19924;-79
2022/08/29 08:03:33;;;;;;;;;;;;;;;23.93;nan;99851.44;5065860;28;19969;-79
2022/08/29 08:05:59;;;;;;;;;;;;;;;24.01;nan;99851.19;5067202;28;19917;-78
2022/08/29 08:08:25;;;;;;;;;;;;;;;24.11;nan;99857.91;5066026;28;19916;-80
2022/08/29 08:10:50;;;;;;;;;;;;;;;24.18;nan;99853.28;5066641;28;19916;-80
2022/08/29 08:13:16;;;;;;;;;;;;;;;24.23;nan;99858.84;5066679;28;19916;-79
2022/08/29 08:15:41;;;;;;;;;;;;;;;24.28;nan;99848.22;5052963;28;19928;-81
2022/08/29 08:18:07;;;;;;;;;;;;;;;24.34;nan;99847.31;5067346;28;19923;-80
2022/08/29 08:20:33;;;;;;;;;;;;;;;24.38;nan;99848.53;5065551;28;20012;-79
2022/08/29 08:22:58;;;;;;;;;;;;;;;24.42;nan;99847.03;5067151;28;19924;-80
2022/08/29 08:25:25;;;;;;;;;;;;;;;24.43;nan;99856.78;5066957;28;19966;-80
2022/08/29 08:27:50;;;;;;;;;;;;;;;24.46;nan;99850.91;5067550;28;20394;-80
2022/08/29 08:30:16;;;;;;;;;;;;;;;24.48;nan;99849.66;5064406;28;19916;-80
2022/08/29 08:32:41;;;;;;;;;;;;;;;24.54;nan;99842.53;5067670;28;19917;-80
2022/08/29 08:35:07;;;;;;;;;;;;;;;24.60;nan;99849.72;5060195;28;20003;-80
2022/08/29 08:37:32;;;;;;;;;;;;;;;24.64;nan;99848.19;5060591;28;20003;-80
2022/08/29 08:39:58;;;;;;;;;;;;;;;24.70;nan;99846.47;5062679;28;19916;-80
2022/08/29 08:42:41;;;;;;;;;;;;;;;24.75;nan;99850.13;5059278;28;19944;-80
2022/08/29 08:45:14;;;;;;;;;;;;;;;24.79;nan;99851.34;5051845;28;20384;-80
2022/08/29 08:47:48;;;;;;;;;;;;;;;24.88;nan;99839.19;5058230;28;20422;-82
2022/08/29 08:50:17;;;;;;;;;;;;;;;24.97;nan;99841.59;5063128;28;19920;-81
2022/08/29 08:53:03;;;;;;;;;;;;;;;25.03;nan;99840.69;5061601;28;19916;-80
2022/08/29 08:55:41;;;;;;;;;;;;;;;25.09;nan;99834.34;5061467;28;20450;-80
2022/08/29 08:58:11;;;;;;;;;;;;;;;25.14;nan;99837.19;5055424;28;19944;-80
2022/08/29 09:00:42;;;;;;;;;;;;;;;25.22;nan;99834.13;5064155;28;20352;-80
2022/08/29 09:03:31;;;;;;;;;;;;;;;25.27;nan;99840.50;5068098;28;20319;-81
2022/08/29 09:05:57;;;;;;;;;;;;;;;25.34;nan;99840.38;5053319;28;20407;-80
2022/08/29 09:08:45;;;;;;;;;;;;;;;25.40;nan;99841.34;5055830;28;19951;-81
2022/08/29 09:11:23;;;;;;;;;;;;;;;25.45;nan;99845.00;5057226;28;19916;-81
2022/08/29 09:13:52;;;;;;;;;;;;;;;25.48;nan;99852.66;5046341;28;19932;-81
2022/08/29 09:16:26;;;;;;;;;;;;;;;25.52;nan;99845.72;5066640;28;20323;-81
2022/08/29 09:18:51;;;;;;;;;;;;;;;25.57;nan;99845.88;5067945;28;20093;-81
2022/08/29 09:21:18;;;;;;;;;;;;;;;25.67;nan;99859.66;5071579;28;19916;-81
2022/08/29 09:23:48;;;;;;;;;;;;;;;25.72;nan;99850.81;5047597;28;19920;-81
2022/08/29 09:26:18;;;;;;;;;;;;;;;25.77;nan;99852.81;5062724;28;20614;-81
2022/08/29 09:28:44;;;;;;;;;;;;;;;25.83;nan;99851.88;5060087;28;20372;-79
2022/08/29 09:31:12;;;;;;;;;;;;;;;25.87;nan;99847.66;5066391;28;19916;-80
2022/08/29 09:33:42;;;;;;;;;;;;;;;25.93;nan;99857.53;5062456;28;19916;-79
2022/08/29 09:36:11;;;;;;;;;;;;;;;25.99;nan;99851.19;5053241;28;19917;-79
2022/08/29 09:38:36;;;;;;;;;;;;;;;26.04;nan;99854.00;5039386;28;19917;-79
2022/08/29 09:41:06;;;;;;;;;;;;;;;26.10;nan;99853.03;5057171;28;19923;-79
2022/08/29 09:43:38;;;;;;;;;;;;;;;26.10;nan;99847.63;5060314;28;20455;-79
2022/08/29 09:46:17;;;;;;;;;;;;;;;26.16;nan;99851.28;5051855;28;20364;-79
2022/08/29 09:48:52;;;;;;;;;;;;;;;26.21;nan;99854.13;5058142;28;19920;-79
2022/08/29 09:51:28;;;;;;;;;;;;;;;26.22;nan;99851.16;5045390;28;20033;-80
2022/08/29 09:54:09;;;;;;;;;;;;;;;26.21;nan;99849.53;5055069;28;19973;-84
2022/08/29 09:56:36;;;;;;;;;;;;;;;26.24;nan;99853.66;5045773;28;20003;-81
2022/08/29 09:59:04;;;;;;;;;;;;;;;26.27;nan;99847.78;5053083;28;19924;-81
2022/08/29 10:01:31;;;;;;;;;;;;;;;26.36;nan;99847.19;5055981;28;20012;-82
2022/08/29 10:03:58;;;;;;;;;;;;;;;26.47;nan;99846.31;5038580;28;20455;-80
2022/08/29 10:06:25;;;;;;;;;;;;;;;26.57;nan;99840.28;5055364;28;20058;-80
2022/08/29 10:09:14;;;;;;;;;;;;;;;26.73;nan;99844.13;5056368;28;20787;-79
2022/08/29 10:11:54;;;;;;;;;;;;;;;26.77;nan;99837.16;5048653;28;19923;-79
2022/08/29 10:14:28;;;;;;;;;;;;;;;26.83;nan;99830.78;5034180;28;20376;-81
2022/08/29 10:19:46;;;;;;;;;;;;;;;27.04;nan;99827.41;5045838;28;19920;-80
2022/08/29 10:22:20;;;;;;;;;;;;;;;27.13;nan;99823.25;5038424;28;19927;-79
2022/08/29 10:24:56;;;;;;;;;;;;;;;27.21;nan;99817.47;5025835;28;20445;-81
2022/08/29 10:27:24;;;;;;;;;;;;;;;27.26;nan;99820.25;5052415;28;19921;-79
2022/08/29 10:29:55;;;;;;;;;;;;;;;27.25;nan;99818.59;5056062;28;20269;-78
2022/08/29 10:32:24;;;;;;;;;;;;;;;27.27;nan;99824.56;5057541;28;19917;-80
2022/08/29 10:35:01;;;;;;;;;;;;;;;27.29;nan;99825.16;5060652;28;20527;-79
2022/08/29 10:37:44;;;;;;;;;;;;;;;27.28;nan;99823.50;5054307;28;19974;-78
2022/08/29 10:40:21;;;;;;;;;;;;;;;27.35;nan;99817.13;5042274;28;19916;-79
2022/08/29 10:42:48;;;;;;;;;;;;;;;27.40;nan;99814.47;5057890;28;19978;-80
2022/08/29 10:45:34;;;;;;;;;;;;;;;27.50;nan;99811.97;5060538;28;19955;-78
2022/08/29 10:48:09;;;;;;;;;;;;;;;27.58;nan;99812.38;5036527;28;20332;-79
2022/08/29 10:50:46;;;;;;;;;;;;;;;27.75;nan;99812.38;5054651;28;20331;-77
2022/08/29 10:53:21;;;;;;;;;;;;;;;27.88;nan;99811.19;5025591;28;20266;-82
2022/08/29 10:55:57;;;;;;;;;;;;;;;27.83;nan;99805.72;5057576;28;19923;-80
2022/08/29 10:58:35;;;;;;;;;;;;;;;27.92;nan;99802.31;5035593;28;20339;-78
2022/08/29 11:01:04;;;;;;;;;;;;;;;27.86;nan;99800.63;5055774;28;20276;-79
2022/08/29 11:03:48;;;;;;;;;;;;;;;27.85;nan;99790.84;5038075;28;20238;-78
2022/08/29 11:06:27;;;;;;;;;;;;;;;27.87;nan;99799.53;5036322;28;20422;-78
2022/08/29 11:09:07;;;;;;;;;;;;;;;27.88;nan;99803.88;5047609;28;19917;-78
2022/08/29 11:11:35;;;;;;;;;;;;;;;27.86;nan;99792.50;5062217;28;19920;-79
2022/08/29 11:14:04;;;;;;;;;;;;;;;27.82;nan;99791.31;5048918;28;19925;-78
2022/08/29 11:16:35;;;;;;;;;;;;;;;27.78;nan;99792.91;5047448;28;19966;-79
2022/08/29 11:19:22;;;;;;;;;;;;;;;27.75;nan;99790.66;5052998;28;19916;-79
2022/08/29 11:21:53;;;;;;;;;;;;;;;27.72;nan;99796.59;5059626;28;20351;-80
2022/08/29 11:24:19;;;;;;;;;;;;;;;27.69;nan;99786.25;5020877;28;20602;-77
2022/08/29 11:27:11;;;;;;;;;;;;;;;27.67;nan;99782.97;5053176;28;20297;-80
2022/08/29 11:29:47;;;;;;;;;;;;;;;27.70;nan;99777.03;5055798;28;19999;-79
2022/08/29 11:32:18;;;;;;;;;;;;;;;27.74;nan;99771.97;5050728;28;19921;-81
2022/08/29 11:35:03;;;;;;;;;;;;;;;27.82;nan;99771.53;5062229;28;19913;-80
2022/08/29 11:37:28;;;;;;;;;;;;;;;27.89;nan;99767.56;5054340;28;19917;-82
2022/08/29 11:40:05;;;;;;;;;;;;;;;27.97;nan;99767.16;5052529;28;19916;-79
2022/08/29 11:42:32;;;;;;;;;;;;;;;28.00;nan;99771.22;5059572;28;20034;-80
2022/08/29 11:44:58;;;;;;;;;;;;;;;28.06;nan;99757.47;5054652;28;20292;-80
2022/08/29 11:47:31;;;;;;;;;;;;;;;28.13;nan;99751.06;5042081;28;19952;-79
2022/08/29 11:50:04;;;;;;;;;;;;;;;28.25;nan;99747.19;5049776;28;19917;-79
2022/08/29 11:52:29;;;;;;;;;;;;;;;28.37;nan;99745.16;5062791;28;19917;-80
2022/08/29 11:55:13;;;;;;;;;;;;;;;28.38;nan;99751.41;5057739;28;19944;-80
2022/08/29 11:57:47;;;;;;;;;;;;;;;28.30;nan;99744.50;5065395;28;19917;-81
2022/08/29 12:00:24;;;;;;;;;;;;;;;28.30;nan;99743.69;5047440;28;19938;-82
2022/08/29 12:02:50;;;;;;;;;;;;;;;28.34;nan;99739.38;5064011;28;20021;-81
2022/08/29 12:05:15;;;;;;;;;;;;;;;28.47;nan;99744.44;5055946;28;19916;-81
2022/08/29 12:07:46;;;;;;;;;;;;;;;28.56;nan;99732.06;5066473;28;19966;-84
2022/08/29 12:10:23;;;;;;;;;;;;;;;28.74;nan;99729.00;5062165;28;19924;-83
2022/08/29 12:12:55;;;;;;;;;;;;;;;28.95;nan;99726.47;5065124;28;19931;-81
2022/08/29 12:15:27;;;;;;;;;;;;;;;29.12;nan;99725.25;5058576;28;20011;-81
2022/08/29 12:17:53;;;;;;;;;;;;;;;29.31;nan;99723.78;5056146;28;19917;-82
2022/08/29 12:20:39;;;;;;;;;;;;;;;29.50;nan;99732.38;5058485;28;20031;-82
2022/08/29 12:23:17;;;;;;;;;;;;;;;29.71;nan;99728.69;5055075;28;19925;-83
2022/08/29 12:25:50;;;;;;;;;;;;;;;29.78;nan;99728.44;5061386;28;19955;-81
2022/08/29 12:28:16;;;;;;;;;;;;;;;29.90;nan;99726.34;5057221;28;19955;-82
2022/08/29 12:30:57;;;;;;;;;;;;;;;30.10;nan;99717.50;5067910;28;19916;-81
2022/08/29 12:33:31;;;;;;;;;;;;;;;30.24;nan;99720.50;5045658;28;19984;-83
2022/08/29 12:36:07;;;;;;;;;;;;;;;30.16;nan;99708.22;5055101;28;19917;-82
2022/08/29 12:38:49;;;;;;;;;;;;;;;30.20;nan;99714.78;5049374;28;19952;-81
2022/08/29 12:41:17;;;;;;;;;;;;;;;29.96;nan;99706.25;5050632;28;20245;-82
2022/08/29 12:43:44;;;;;;;;;;;;;;;29.78;nan;99711.31;5045244;28;19917;-83
2022/08/29 12:46:15;;;;;;;;;;;;;;;29.65;nan;99712.59;5055090;28;19959;-83
2022/08/29 12:48:43;;;;;;;;;;;;;;;29.49;nan;99713.59;5047950;28;19916;-82
2022/08/29 12:51:09;;;;;;;;;;;;;;;29.38;nan;99701.03;5037582;28;19917;-82
2022/08/29 12:53:35;;;;;;;;;;;;;;;29.38;nan;99701.84;5050521;28;19921;-83
2022/08/29 12:56:22;;;;;;;;;;;;;;;29.69;nan;99695.47;5046113;28;19943;-81
2022/08/29 12:58:56;;;;;;;;;;;;;;;30.20;nan;99698.47;5052528;28;19974;-83
2022/08/29 13:01:29;;;;;;;;;;;;;;;30.48;nan;99692.56;5049459;28;20067;-83
2022/08/29 13:03:58;;;;;;;;;;;;;;;30.19;nan;99691.38;5049261;28;19978;-83
2022/08/29 13:06:23;;;;;;;;;;;;;;;30.08;nan;99690.53;5035775;28;19917;-76
2022/08/29 13:08:51;;;;;;;;;;;;;;;30.01;nan;99689.13;5043657;28;19931;-76
2022/08/29 13:11:23;;;;;;;;;;;;;;;30.47;nan;99692.78;5043820;28;20430;-75
2022/08/29 13:13:48;;;;;;;;;;;;;;;30.96;nan;99681.44;5044482;28;19978;-76
2022/08/29 13:16:25;;;;;;;;;;;;;;;31.41;nan;99681.41;5025420;28;19962;-77
2022/08/29 13:18:50;;;;;;;;;;;;;;;31.59;nan;99674.56;5046293;28;19913;-77
2022/08/29 13:21:23;;;;;;;;;;;;;;;31.34;nan;99671.91;5039170;28;19971;-75